Time;durP1;ratioP1;P1;durP2;ratioP2;P2;SDS_P1;SDS_P2;PMS_P1;PMS_P2;Temp;Humidity;BMP_temperature;BMP_pressure;BME280_temperature;BME280_humidity;BME280_pressure;Samples;Min_cycle;Max_cycle;Signal;HPM_P1;HPM_P2
2021/11/20 00:01:47;;;;;;;39.67;29.53;;;12.30;98.50;;;;;;5072962;28;20495;-69
2021/11/20 00:04:14;;;;;;;40.83;31.23;;;12.30;98.50;;;;;;5072789;28;20459;-69
2021/11/20 00:06:44;;;;;;;47.47;30.70;;;12.30;98.40;;;;;;5073067;28;20484;-68
2021/11/20 00:09:13;;;;;;;46.10;30.80;;;12.30;98.40;;;;;;5072766;28;20445;-68
2021/11/20 00:11:42;;;;;;;42.20;33.13;;;12.20;98.30;;;;;;5072772;28;20445;-69
2021/11/20 00:14:13;;;;;;;46.50;31.70;;;12.30;98.40;;;;;;5072516;28;20457;-69
2021/11/20 00:16:41;;;;;;;40.50;29.17;;;12.30;98.40;;;;;;5072802;28;20468;-69
2021/11/20 00:19:09;;;;;;;42.00;30.47;;;12.30;98.40;;;;;;5072794;28;20448;-69
2021/11/20 00:21:46;;;;;;;44.90;30.43;;;12.30;98.30;;;;;;5074754;28;20452;-69
2021/11/20 00:24:28;;;;;;;45.43;30.10;;;12.20;98.40;;;;;;5076041;28;20925;-69
2021/11/20 00:26:56;;;;;;;49.17;32.13;;;12.10;98.50;;;;;;5076120;28;20488;-69
2021/11/20 00:29:37;;;;;;;42.80;29.17;;;12.10;98.60;;;;;;5076208;28;20803;-69
2021/11/20 00:32:08;;;;;;;39.87;30.20;;;12.20;98.60;;;;;;5076220;28;20440;-69
2021/11/20 00:34:35;;;;;;;48.77;30.80;;;12.20;98.60;;;;;;5076377;28;20437;-69
2021/11/20 00:37:02;;;;;;;41.47;30.47;;;12.20;98.50;;;;;;5077302;28;20461;-69
2021/11/20 00:39:31;;;;;;;43.10;31.07;;;12.20;98.50;;;;;;5077070;28;20452;-69
2021/11/20 00:41:58;;;;;;;43.90;31.60;;;12.10;98.30;;;;;;5075717;28;20444;-69
2021/11/20 00:44:27;;;;;;;45.70;30.43;;;12.20;98.40;;;;;;5076057;28;20444;-69
2021/11/20 00:46:54;;;;;;;41.27;31.33;;;12.20;98.30;;;;;;5075718;28;20499;-69
2021/11/20 00:49:22;;;;;;;44.60;30.27;;;12.20;98.20;;;;;;5075507;28;20451;-69
2021/11/20 00:51:50;;;;;;;37.57;28.80;;;12.20;98.20;;;;;;5075434;28;20979;-69
2021/11/20 00:54:17;;;;;;;43.90;31.33;;;12.20;98.20;;;;;;5075303;28;20449;-69
2021/11/20 00:56:45;;;;;;;40.63;30.30;;;12.20;98.10;;;;;;5075282;28;20868;-69
2021/11/20 00:59:12;;;;;;;45.00;30.40;;;12.30;98.10;;;;;;5075611;28;20436;-69
2021/11/20 01:01:44;;;;;;;41.50;31.27;;;12.30;97.90;;;;;;5075549;28;20488;-69
2021/11/20 01:04:11;;;;;;;44.60;32.20;;;12.20;97.90;;;;;;5075582;28;20445;-69
2021/11/20 01:06:39;;;;;;;44.70;32.23;;;12.20;97.80;;;;;;5075274;28;20488;-69
2021/11/20 01:09:11;;;;;;;42.63;30.63;;;12.20;97.90;;;;;;5075176;28;20453;-69
2021/11/20 01:11:42;;;;;;;43.53;32.23;;;12.20;97.90;;;;;;5075361;28;20468;-69
2021/11/20 01:14:12;;;;;;;46.10;32.47;;;12.20;97.90;;;;;;5075403;28;20460;-69
2021/11/20 01:16:39;;;;;;;43.97;32.43;;;12.20;97.80;;;;;;5074898;28;20518;-69
2021/11/20 01:19:08;;;;;;;38.17;30.70;;;12.10;97.80;;;;;;5075141;28;20954;-69
2021/11/20 01:21:36;;;;;;;47.50;32.43;;;12.10;97.90;;;;;;5075193;28;20468;-69
2021/11/20 01:24:04;;;;;;;44.93;31.50;;;12.10;98.00;;;;;;5075033;28;20453;-69
2021/11/20 01:26:31;;;;;;;46.07;32.23;;;12.10;97.90;;;;;;5074975;28;20484;-69
2021/11/20 01:28:59;;;;;;;42.20;31.17;;;12.10;97.90;;;;;;5074983;28;20444;-69
2021/11/20 01:31:29;;;;;;;44.17;31.63;;;12.10;98.00;;;;;;5074824;28;20449;-69
2021/11/20 01:33:56;;;;;;;42.47;32.00;;;12.20;98.00;;;;;;5074952;28;20436;-69
2021/11/20 01:36:28;;;;;;;42.63;30.03;;;12.20;98.00;;;;;;5074937;28;20465;-69
2021/11/20 01:38:56;;;;;;;49.17;33.00;;;12.20;98.00;;;;;;5074501;28;20848;-69
2021/11/20 01:41:25;;;;;;;47.57;32.33;;;12.20;98.00;;;;;;5074472;28;20448;-69
2021/11/20 01:43:55;;;;;;;46.37;31.07;;;12.20;98.00;;;;;;5074936;28;20445;-69
2021/11/20 01:46:25;;;;;;;40.90;30.63;;;12.20;97.90;;;;;;5074485;28;20473;-69
2021/11/20 01:49:15;;;;;;;42.97;30.87;;;12.20;97.90;;;;;;5074829;28;20808;-69
2021/11/20 01:51:48;;;;;;;45.63;30.73;;;12.20;97.90;;;;;;5075198;28;20437;-69
2021/11/20 01:54:34;;;;;;;37.33;28.40;;;12.30;97.90;;;;;;5074596;28;20486;-69
2021/11/20 01:57:05;;;;;;;38.37;28.23;;;12.30;97.80;;;;;;5073752;28;20487;-69
2021/11/20 01:59:38;;;;;;;44.87;29.80;;;12.30;97.70;;;;;;5074464;28;20433;-69
2021/11/20 02:02:14;;;;;;;46.83;31.37;;;12.30;97.60;;;;;;5074132;28;20790;-69
2021/11/20 02:04:46;;;;;;;42.23;29.83;;;12.30;97.40;;;;;;5074348;28;20450;-69
2021/11/20 02:07:19;;;;;;;45.90;32.10;;;12.30;97.40;;;;;;5074235;28;20487;-69
2021/11/20 02:09:51;;;;;;;52.53;34.00;;;12.30;97.30;;;;;;5074232;28;20515;-69
2021/11/20 02:12:25;;;;;;;44.73;31.10;;;12.30;97.30;;;;;;5073877;28;20433;-69
2021/11/20 02:14:53;;;;;;;48.60;31.93;;;12.30;97.10;;;;;;5074064;28;20452;-69
2021/11/20 02:17:23;;;;;;;45.70;31.00;;;12.40;97.20;;;;;;5074084;28;20441;-70
2021/11/20 02:19:53;;;;;;;50.53;30.67;;;12.30;97.10;;;;;;5074035;28;20437;-70
2021/11/20 02:22:33;;;;;;;45.70;29.60;;;12.30;97.10;;;;;;5073949;28;20448;-70
2021/11/20 02:25:00;;;;;;;41.60;28.93;;;12.30;97.00;;;;;;5073886;28;20437;-70
2021/11/20 02:27:28;;;;;;;49.40;32.07;;;12.30;97.00;;;;;;5073832;28;20484;-69
2021/11/20 02:30:16;;;;;;;45.50;30.10;;;12.30;97.10;;;;;;5073574;28;20458;-69
2021/11/20 02:32:43;;;;;;;51.60;30.50;;;12.30;97.10;;;;;;5073865;28;20440;-69
2021/11/20 02:35:13;;;;;;;52.57;32.40;;;12.30;97.00;;;;;;5073976;28;20842;-69
2021/11/20 02:37:40;;;;;;;47.40;32.83;;;12.30;97.00;;;;;;5073441;28;20939;-69
2021/11/20 02:40:08;;;;;;;40.77;29.20;;;12.30;97.30;;;;;;5073705;28;20456;-69
2021/11/20 02:42:36;;;;;;;50.83;33.13;;;12.30;97.00;;;;;;5073702;28;20480;-69
2021/11/20 02:45:12;;;;;;;50.47;30.60;;;12.30;97.00;;;;;;5073068;28;20461;-69
2021/11/20 02:47:39;;;;;;;46.53;29.47;;;12.30;97.00;;;;;;5073591;28;20471;-70
2021/11/20 02:50:07;;;;;;;45.40;27.90;;;12.30;97.00;;;;;;5073616;28;20836;-70
2021/11/20 02:52:34;;;;;;;45.97;30.27;;;12.40;97.00;;;;;;5073536;28;20452;-70
2021/11/20 02:55:01;;;;;;;50.00;29.60;;;12.40;97.00;;;;;;5073270;28;20453;-70
2021/11/20 02:57:31;;;;;;;41.67;28.87;;;12.40;97.00;;;;;;5073000;28;20969;-70
2021/11/20 02:59:58;;;;;;;46.80;32.80;;;12.40;97.00;;;;;;5073254;28;20448;-70
2021/11/20 03:02:27;;;;;;;46.33;30.13;;;12.40;96.90;;;;;;5073154;28;20464;-70
2021/11/20 03:04:54;;;;;;;48.60;30.50;;;12.30;96.80;;;;;;5073312;28;20449;-70
2021/11/20 03:07:21;;;;;;;46.13;30.50;;;12.30;96.80;;;;;;5072668;28;21005;-70
2021/11/20 03:09:49;;;;;;;49.77;32.50;;;12.40;96.90;;;;;;5073207;28;20454;-70
2021/11/20 03:12:16;;;;;;;42.00;28.90;;;12.40;96.80;;;;;;5073398;28;20449;-69
2021/11/20 03:17:55;;;;;;;50.67;32.87;;;12.40;96.80;;;;;;5744635;22;20499;-68
2021/11/20 03:20:22;;;;;;;42.27;28.97;;;12.40;96.70;;;;;;4993809;28;20467;-67
2021/11/20 03:22:52;;;;;;;46.70;30.50;;;12.30;96.60;;;;;;4994002;28;20455;-67
2021/11/20 03:25:20;;;;;;;44.93;30.73;;;12.30;96.70;;;;;;4993695;28;20934;-67
2021/11/20 03:27:46;;;;;;;49.27;32.80;;;12.30;96.70;;;;;;4993819;28;20499;-68
2021/11/20 03:30:14;;;;;;;48.77;32.77;;;12.30;96.70;;;;;;4993926;28;20444;-68
2021/11/20 03:32:41;;;;;;;47.50;30.90;;;12.30;96.70;;;;;;4993891;28;20448;-67
2021/11/20 03:35:11;;;;;;;45.27;29.53;;;12.30;96.70;;;;;;4993910;28;20452;-67
2021/11/20 03:37:39;;;;;;;45.70;30.33;;;12.30;97.00;;;;;;4993505;28;21000;-67
2021/11/20 03:40:09;;;;;;;47.30;30.17;;;12.30;96.70;;;;;;4993827;28;20448;-67
2021/11/20 03:42:36;;;;;;;45.53;29.80;;;12.30;96.60;;;;;;4993890;28;20452;-67
2021/11/20 03:45:04;;;;;;;47.53;28.87;;;12.30;96.60;;;;;;4993808;28;20463;-67
2021/11/20 03:47:30;;;;;;;45.87;30.87;;;12.30;96.60;;;;;;4993317;28;20999;-67
2021/11/20 03:49:57;;;;;;;42.00;29.47;;;12.40;96.60;;;;;;4993429;28;21052;-67
2021/11/20 03:52:27;;;;;;;42.17;27.70;;;12.30;96.40;;;;;;4993733;28;20452;-67
2021/11/20 03:54:54;;;;;;;40.63;26.37;;;12.30;96.40;;;;;;4993748;28;20510;-67
2021/11/20 03:57:22;;;;;;;37.63;27.63;;;12.30;96.50;;;;;;4997097;28;20464;-67
2021/11/20 03:59:49;;;;;;;42.90;29.13;;;12.30;96.50;;;;;;4997403;28;20574;-67
2021/11/20 04:02:16;;;;;;;44.90;30.00;;;12.30;96.40;;;;;;4997061;28;20487;-67
2021/11/20 04:04:43;;;;;;;45.40;29.47;;;12.30;96.40;;;;;;4997291;28;20452;-67
2021/11/20 04:07:09;;;;;;;42.23;28.80;;;12.20;96.30;;;;;;4997120;28;20468;-68
2021/11/20 04:09:38;;;;;;;44.60;30.07;;;12.20;96.40;;;;;;4997442;28;20451;-67
2021/11/20 04:12:05;;;;;;;48.37;31.17;;;12.20;96.50;;;;;;4997402;28;20485;-67
2021/11/20 04:14:32;;;;;;;42.67;29.40;;;12.20;96.50;;;;;;4997164;28;20792;-67
2021/11/20 04:16:59;;;;;;;41.80;29.10;;;12.20;96.50;;;;;;4997005;28;20471;-68
2021/11/20 04:19:26;;;;;;;42.47;28.17;;;12.20;96.50;;;;;;4996851;28;20459;-67
2021/11/20 04:21:54;;;;;;;45.10;29.83;;;12.20;96.50;;;;;;4997011;28;20432;-65
2021/11/20 04:24:21;;;;;;;43.27;30.20;;;12.20;96.40;;;;;;4997003;28;20452;-65
2021/11/20 04:26:50;;;;;;;42.97;29.00;;;12.20;96.40;;;;;;4996808;28;20468;-66
2021/11/20 04:29:17;;;;;;;43.37;29.40;;;12.20;96.50;;;;;;4996769;28;20483;-65
2021/11/20 04:31:44;;;;;;;46.40;29.30;;;12.10;96.40;;;;;;4996861;28;20458;-65
2021/11/20 04:34:11;;;;;;;40.07;26.40;;;12.10;96.50;;;;;;4996461;28;20964;-65
2021/11/20 04:36:38;;;;;;;41.13;29.40;;;12.10;96.40;;;;;;4996642;28;20455;-66
2021/11/20 04:39:06;;;;;;;38.63;28.77;;;12.10;96.50;;;;;;4996373;28;20447;-65
2021/11/20 04:41:33;;;;;;;43.60;29.20;;;12.10;96.50;;;;;;4996559;28;20448;-65
2021/11/20 04:44:01;;;;;;;38.23;26.13;;;12.10;96.50;;;;;;4996580;28;20456;-65
2021/11/20 04:46:29;;;;;;;38.20;27.20;;;12.10;96.50;;;;;;4996457;28;20448;-66
2021/11/20 04:48:55;;;;;;;40.63;27.20;;;12.10;96.50;;;;;;4996474;28;20848;-65
2021/11/20 04:51:24;;;;;;;47.53;28.10;;;12.10;96.50;;;;;;4996429;28;20452;-65
2021/11/20 04:53:51;;;;;;;44.63;27.63;;;12.10;96.50;;;;;;4996227;28;20448;-65
2021/11/20 04:56:21;;;;;;;43.07;26.70;;;12.20;96.50;;;;;;4996490;28;20440;-65
2021/11/20 04:58:49;;;;;;;39.80;24.90;;;12.20;96.50;;;;;;4996218;28;20483;-66
2021/11/20 05:01:19;;;;;;;41.90;27.83;;;12.20;96.40;;;;;;4996015;28;20913;-66
2021/11/20 05:03:47;;;;;;;42.40;27.40;;;12.20;96.40;;;;;;4996302;28;20506;-66
2021/11/20 05:06:15;;;;;;;43.10;28.23;;;12.20;96.30;;;;;;4995804;28;20466;-66
2021/11/20 05:08:42;;;;;;;47.23;28.20;;;12.20;96.30;;;;;;4995993;28;20496;-66
2021/11/20 05:11:09;;;;;;;45.20;26.93;;;12.20;96.30;;;;;;4996135;28;20448;-66
2021/11/20 05:13:36;;;;;;;36.30;25.00;;;12.20;96.20;;;;;;4996048;28;20455;-65
2021/11/20 05:16:03;;;;;;;43.03;26.90;;;12.20;96.20;;;;;;4996033;28;20445;-65
2021/11/20 05:18:32;;;;;;;40.50;26.83;;;12.20;96.10;;;;;;4995953;28;20461;-65
2021/11/20 05:21:01;;;;;;;39.27;24.40;;;12.20;96.20;;;;;;4995863;28;20460;-65
2021/11/20 05:23:29;;;;;;;39.33;25.40;;;12.20;96.20;;;;;;4996388;28;20444;-65
2021/11/20 05:25:56;;;;;;;38.50;26.60;;;12.20;96.20;;;;;;4995840;28;20863;-65
2021/11/20 05:28:23;;;;;;;36.00;25.27;;;12.20;96.20;;;;;;4995632;28;20492;-65
2021/11/20 05:30:51;;;;;;;36.23;25.47;;;12.20;96.20;;;;;;4995804;28;20459;-65
2021/11/20 05:33:29;;;;;;;41.80;24.90;;;12.20;96.20;;;;;;4995475;28;20452;-65
2021/11/20 05:35:57;;;;;;;38.80;25.63;;;12.20;96.30;;;;;;4995738;28;20436;-65
2021/11/20 05:38:24;;;;;;;41.23;25.97;;;12.20;96.20;;;;;;4995540;28;20464;-66
2021/11/20 05:40:51;;;;;;;38.73;26.67;;;12.20;96.20;;;;;;4995540;28;20448;-66
2021/11/20 05:43:20;;;;;;;37.27;25.53;;;12.20;96.10;;;;;;4995456;28;20452;-65
2021/11/20 05:45:49;;;;;;;37.70;25.10;;;12.10;95.90;;;;;;4995499;28;20444;-65
2021/11/20 05:48:17;;;;;;;39.97;25.47;;;12.10;95.80;;;;;;4995489;28;20492;-65
2021/11/20 05:50:45;;;;;;;34.83;25.33;;;12.10;95.90;;;;;;4994999;28;20969;-65
2021/11/20 05:53:15;;;;;;;35.37;24.67;;;12.10;95.80;;;;;;4995545;28;20458;-65
2021/11/20 05:55:44;;;;;;;42.57;25.30;;;12.20;95.90;;;;;;4995122;28;20456;-65
2021/11/20 05:58:11;;;;;;;38.13;25.17;;;12.20;95.80;;;;;;4995113;28;20468;-65
2021/11/20 06:00:40;;;;;;;42.73;26.87;;;12.20;95.80;;;;;;4995075;28;20448;-65
2021/11/20 06:03:09;;;;;;;41.43;27.50;;;12.20;95.80;;;;;;4994831;28;20452;-65
2021/11/20 06:05:36;;;;;;;47.83;26.10;;;12.20;95.70;;;;;;4994711;28;21032;-65
2021/11/20 06:08:04;;;;;;;34.20;22.30;;;12.20;95.70;;;;;;4994851;28;20491;-65
2021/11/20 06:10:32;;;;;;;38.83;26.30;;;12.20;95.60;;;;;;4994887;28;20455;-65
2021/11/20 06:12:59;;;;;;;44.10;27.13;;;12.10;95.30;;;;;;4994834;28;20822;-65
2021/11/20 06:15:26;;;;;;;41.10;24.53;;;12.10;95.10;;;;;;4994922;28;20456;-65
2021/11/20 06:17:53;;;;;;;37.37;24.97;;;12.10;95.20;;;;;;4994513;28;20472;-66
2021/11/20 06:20:20;;;;;;;41.07;25.40;;;12.10;95.30;;;;;;4994134;28;20460;-66
2021/11/20 06:22:47;;;;;;;36.07;24.30;;;12.10;95.30;;;;;;4994818;28;20459;-66
2021/11/20 06:25:14;;;;;;;38.83;25.83;;;12.10;95.30;;;;;;4994689;28;20448;-65
2021/11/20 06:27:42;;;;;;;37.87;26.77;;;12.10;95.30;;;;;;4994728;28;20485;-66
2021/11/20 06:30:12;;;;;;;36.80;25.43;;;12.20;95.30;;;;;;4994668;28;20449;-65
2021/11/20 06:32:38;;;;;;;40.53;26.40;;;12.10;95.00;;;;;;4994831;28;20448;-65
2021/11/20 06:35:07;;;;;;;39.53;24.00;;;12.10;95.00;;;;;;4994583;28;20813;-65
2021/11/20 06:37:34;;;;;;;42.50;25.60;;;12.10;95.00;;;;;;4994460;28;20487;-65
2021/11/20 06:40:01;;;;;;;42.17;23.90;;;12.10;95.00;;;;;;4994475;28;20880;-65
2021/11/20 06:42:28;;;;;;;40.57;24.50;;;12.10;95.00;;;;;;4994464;28;20444;-68
2021/11/20 06:44:57;;;;;;;44.80;27.83;;;12.10;95.10;;;;;;4994187;28;20930;-66
2021/11/20 06:47:23;;;;;;;39.43;26.00;;;12.00;95.10;;;;;;4994441;28;20468;-66
2021/11/20 06:49:51;;;;;;;41.83;26.43;;;12.00;95.20;;;;;;4994385;28;20484;-66
2021/11/20 06:52:18;;;;;;;46.07;25.23;;;12.10;95.60;;;;;;4994323;28;20459;-66
2021/11/20 06:54:45;;;;;;;38.47;24.33;;;12.10;95.30;;;;;;4994195;28;20452;-66
2021/11/20 06:57:14;;;;;;;36.50;25.23;;;12.10;95.40;;;;;;4994180;28;20500;-66
2021/11/20 07:02:33;;;;;;;44.70;27.87;;;12.10;95.20;;;;;;4994317;28;20540;-66
2021/11/20 07:05:00;;;;;;;40.70;25.07;;;12.10;95.20;;;;;;4993892;28;20440;-66
2021/11/20 07:07:28;;;;;;;49.87;27.73;;;12.10;95.30;;;;;;4994099;28;20471;-66
2021/11/20 07:09:55;;;;;;;34.80;24.43;;;12.10;95.30;;;;;;4994089;28;20479;-66
2021/11/20 07:12:22;;;;;;;45.90;28.60;;;12.10;95.30;;;;;;4994051;28;20448;-66
2021/11/20 07:14:49;;;;;;;40.07;26.50;;;12.10;95.20;;;;;;4994079;28;20457;-66
2021/11/20 07:17:16;;;;;;;40.27;25.60;;;12.00;95.20;;;;;;4993951;28;20828;-66
2021/11/20 07:19:44;;;;;;;42.90;27.63;;;12.00;95.20;;;;;;4993871;28;20463;-66
2021/11/20 07:22:11;;;;;;;41.77;27.23;;;12.00;95.30;;;;;;4993946;28;20467;-66
2021/11/20 07:24:38;;;;;;;38.10;24.27;;;12.10;95.40;;;;;;4993664;28;20452;-66
2021/11/20 07:27:05;;;;;;;40.93;25.90;;;12.10;95.40;;;;;;4993611;28;20474;-67
2021/11/20 07:29:32;;;;;;;45.57;27.27;;;12.10;95.40;;;;;;4994270;28;20503;-66
2021/11/20 07:31:59;;;;;;;44.67;27.97;;;12.10;95.70;;;;;;4997967;28;20455;-66
2021/11/20 07:34:26;;;;;;;38.40;25.87;;;12.10;95.40;;;;;;4997902;28;20455;-66
2021/11/20 07:36:55;;;;;;;47.13;26.97;;;12.10;95.30;;;;;;4997451;28;20840;-67
2021/11/20 07:39:22;;;;;;;43.17;29.03;;;12.10;95.40;;;;;;4997760;28;20455;-66
2021/11/20 07:41:50;;;;;;;38.40;26.83;;;12.10;95.30;;;;;;4997792;28;20436;-66
2021/11/20 07:44:17;;;;;;;42.10;28.00;;;12.10;95.30;;;;;;4997750;28;20452;-66
2021/11/20 07:46:44;;;;;;;39.30;26.50;;;12.10;95.20;;;;;;4997515;28;20451;-67
2021/11/20 07:49:11;;;;;;;47.67;27.63;;;12.20;95.10;;;;;;4997831;28;20480;-66
2021/11/20 07:51:38;;;;;;;40.40;25.90;;;12.10;95.00;;;;;;4997664;28;20816;-66
2021/11/20 07:54:06;;;;;;;43.30;26.17;;;12.10;95.00;;;;;;4997555;28;20452;-66
2021/11/20 07:56:41;;;;;;;49.80;29.00;;;12.20;95.40;;;;;;4997443;28;20444;-67
2021/11/20 07:59:08;;;;;;;37.20;25.07;;;12.20;95.00;;;;;;4997559;28;20478;-67
2021/11/20 08:01:34;;;;;;;48.33;28.23;;;12.20;94.80;;;;;;4997666;28;20444;-67
2021/11/20 08:04:01;;;;;;;38.77;25.30;;;12.20;94.70;;;;;;4997367;28;20454;-67
2021/11/20 08:06:30;;;;;;;42.67;26.30;;;12.20;94.70;;;;;;4997512;28;20444;-68
2021/11/20 08:08:57;;;;;;;41.97;26.50;;;12.20;94.60;;;;;;4996912;28;21072;-67
2021/11/20 08:11:25;;;;;;;37.83;25.33;;;12.20;94.40;;;;;;4996974;28;20973;-66
2021/11/20 08:13:52;;;;;;;46.23;27.37;;;12.20;94.40;;;;;;4996938;28;20957;-66
2021/11/20 08:16:18;;;;;;;40.33;27.93;;;12.20;94.50;;;;;;4997200;28;20460;-67
2021/11/20 08:18:45;;;;;;;38.57;25.50;;;12.20;94.50;;;;;;4996669;28;20995;-66
2021/11/20 08:21:12;;;;;;;43.23;27.10;;;12.30;94.60;;;;;;4996912;28;20464;-66
2021/11/20 08:23:40;;;;;;;47.20;27.53;;;12.30;94.50;;;;;;4996672;28;20443;-66
2021/11/20 08:26:07;;;;;;;37.03;24.33;;;12.30;94.20;;;;;;4996989;28;20488;-66
2021/11/20 08:28:36;;;;;;;37.17;24.37;;;12.30;94.10;;;;;;4996763;28;20494;-67
2021/11/20 08:31:03;;;;;;;38.83;26.40;;;12.30;94.10;;;;;;4996905;28;20448;-67
2021/11/20 08:33:30;;;;;;;43.83;26.33;;;12.40;94.10;;;;;;4996877;28;20443;-67
2021/11/20 08:35:57;;;;;;;41.80;26.90;;;12.30;94.10;;;;;;4996450;28;20946;-67
2021/11/20 08:38:25;;;;;;;35.03;24.83;;;12.40;94.10;;;;;;4996677;28;20464;-67
2021/11/20 08:40:53;;;;;;;38.87;24.20;;;12.40;94.10;;;;;;4996458;28;20973;-67
2021/11/20 08:43:28;;;;;;;40.87;25.60;;;12.40;94.00;;;;;;4996183;28;20452;-67
2021/11/20 08:45:58;;;;;;;37.43;23.80;;;12.40;93.80;;;;;;4996366;28;20906;-67
2021/11/20 08:48:25;;;;;;;38.40;23.60;;;12.40;93.80;;;;;;4996472;28;20468;-66
2021/11/20 08:50:54;;;;;;;36.50;25.27;;;12.50;93.80;;;;;;4996571;28;20448;-66
2021/11/20 08:53:22;;;;;;;34.10;22.07;;;12.50;93.70;;;;;;4996151;28;20817;-66
2021/11/20 08:55:49;;;;;;;32.67;23.60;;;12.50;93.90;;;;;;4996275;28;20435;-66
2021/11/20 08:58:17;;;;;;;36.60;23.63;;;12.50;93.50;;;;;;4996540;28;20468;-66
2021/11/20 09:00:50;;;;;;;36.03;22.00;;;12.60;93.50;;;;;;4996179;28;20800;-66
2021/11/20 09:03:22;;;;;;;39.53;21.97;;;12.60;93.10;;;;;;4996794;28;20443;-66
2021/11/20 09:05:57;;;;;;;32.33;20.37;;;12.60;92.90;;;;;;4996557;28;20447;-66
2021/11/20 09:08:28;;;;;;;31.30;22.07;;;12.60;92.70;;;;;;4996215;28;20463;-66
2021/11/20 09:11:02;;;;;;;31.40;20.50;;;12.70;92.50;;;;;;4996167;28;20472;-66
2021/11/20 09:13:35;;;;;;;28.20;21.23;;;12.70;92.60;;;;;;4996241;28;20437;-66
2021/11/20 09:16:05;;;;;;;26.10;18.93;;;12.70;92.80;;;;;;4996337;28;20779;-66
2021/11/20 09:18:34;;;;;;;29.50;19.90;;;12.70;92.50;;;;;;4996287;28;21048;-66
2021/11/20 09:21:02;;;;;;;30.60;19.87;;;12.70;92.30;;;;;;4995795;28;20460;-66
2021/11/20 09:23:29;;;;;;;27.17;19.70;;;12.70;92.30;;;;;;4995811;28;20460;-66
2021/11/20 09:25:57;;;;;;;26.47;19.70;;;12.80;92.30;;;;;;4995857;28;20433;-66
2021/11/20 09:28:24;;;;;;;30.23;19.80;;;12.80;92.00;;;;;;4995682;28;20504;-67
2021/11/20 09:30:55;;;;;;;28.60;20.73;;;12.80;91.90;;;;;;4995619;28;20487;-66
2021/11/20 09:33:23;;;;;;;28.97;19.60;;;12.80;91.80;;;;;;4995654;28;20437;-66
2021/11/20 09:35:52;;;;;;;24.90;19.40;;;12.90;91.90;;;;;;4995722;28;20456;-66
2021/11/20 09:38:21;;;;;;;25.80;19.10;;;12.90;91.60;;;;;;4995555;28;20483;-66
2021/11/20 09:40:51;;;;;;;24.90;18.60;;;12.90;91.30;;;;;;4995595;28;20785;-67
2021/11/20 09:43:22;;;;;;;27.90;19.10;;;12.90;91.20;;;;;;4996414;28;20470;-67
2021/11/20 09:45:55;;;;;;;30.23;19.57;;;12.90;91.00;;;;;;4996112;28;20432;-66
2021/11/20 09:48:26;;;;;;;27.27;19.17;;;12.80;91.10;;;;;;4995092;28;21019;-66
2021/11/20 09:51:00;;;;;;;32.57;18.93;;;12.90;91.30;;;;;;4996111;28;20473;-66
2021/11/20 09:53:27;;;;;;;27.33;20.50;;;12.90;91.20;;;;;;4995333;28;20444;-66
2021/11/20 09:55:58;;;;;;;21.37;17.93;;;12.90;91.10;;;;;;4995305;28;20452;-66
2021/11/20 09:58:31;;;;;;;24.87;18.13;;;12.90;90.90;;;;;;4995345;28;20472;-66
2021/11/20 10:01:29;;;;;;;25.20;19.13;;;12.90;90.90;;;;;;4996157;28;20447;-68
2021/11/20 10:04:12;;;;;;;24.43;17.60;;;12.90;91.10;;;;;;4995190;28;20432;-66
2021/11/20 10:06:42;;;;;;;26.17;17.27;;;12.90;91.10;;;;;;4995245;28;20429;-67
2021/11/20 10:09:26;;;;;;;21.60;17.47;;;12.90;91.00;;;;;;4995451;28;20440;-66
2021/11/20 10:11:58;;;;;;;23.77;17.30;;;12.90;90.70;;;;;;4995580;28;20413;-66
2021/11/20 10:14:39;;;;;;;19.77;16.37;;;13.00;90.50;;;;;;4995082;28;20447;-66
2021/11/20 10:17:27;;;;;;;32.93;17.83;;;13.00;90.40;;;;;;4994792;28;20587;-67
2021/11/20 10:19:57;;;;;;;26.43;18.30;;;13.00;90.40;;;;;;4994630;28;20460;-67
2021/11/20 10:22:36;;;;;;;21.60;17.27;;;13.00;90.50;;;;;;4994805;28;20432;-67
2021/11/20 10:25:18;;;;;;;19.73;15.77;;;13.00;90.40;;;;;;4995453;28;20957;-67
2021/11/20 10:27:59;;;;;;;24.53;15.93;;;13.00;90.40;;;;;;4994223;28;21004;-67
2021/11/20 10:30:34;;;;;;;26.10;18.10;;;13.10;90.60;;;;;;4994236;28;20476;-69
2021/11/20 10:33:06;;;;;;;24.10;16.93;;;13.10;90.90;;;;;;4994157;28;20197;-69
2021/11/20 10:35:36;;;;;;;22.20;17.20;;;13.20;90.20;;;;;;4994472;28;20443;-69
2021/11/20 10:38:12;;;;;;;22.87;16.80;;;13.20;90.60;;;;;;4995005;28;20516;-68
2021/11/20 10:40:44;;;;;;;21.20;15.87;;;13.10;90.20;;;;;;4994445;28;20439;-68
2021/11/20 10:43:19;;;;;;;21.80;17.07;;;13.10;90.00;;;;;;4994409;28;20433;-67
2021/11/20 10:45:55;;;;;;;21.60;16.57;;;13.10;89.80;;;;;;4994381;28;20438;-67
2021/11/20 10:48:32;;;;;;;22.10;16.03;;;13.00;90.20;;;;;;4994278;28;20566;-68
2021/11/20 10:51:34;;;;;;;21.17;16.87;;;12.90;90.00;;;;;;4994879;28;20472;-68
2021/11/20 10:54:30;;;;;;;17.67;15.30;;;12.80;90.10;;;;;;4994016;28;20443;-67
2021/11/20 10:57:01;;;;;;;21.57;16.07;;;12.70;90.60;;;;;;4994417;28;20464;-68
2021/11/20 11:00:00;;;;;;;18.77;16.30;;;12.80;90.70;;;;;;4994286;28;20437;-68
2021/11/20 11:02:45;;;;;;;20.73;17.17;;;12.80;90.90;;;;;;4994105;28;20460;-67
2021/11/20 11:05:41;;;;;;;23.60;17.67;;;12.80;90.80;;;;;;4993459;28;20860;-67
2021/11/20 11:08:22;;;;;;;19.20;16.00;;;12.90;90.80;;;;;;4988814;28;20574;-68
2021/11/20 11:10:58;;;;;;;22.03;15.33;;;12.80;90.50;;;;;;4993298;28;20468;-67
2021/11/20 11:13:40;;;;;;;20.53;16.10;;;12.90;90.40;;;;;;4993489;28;20467;-67
2021/11/20 11:16:14;;;;;;;20.23;17.60;;;12.90;90.20;;;;;;4993029;28;20926;-67
2021/11/20 11:18:43;;;;;;;20.97;15.90;;;12.80;89.30;;;;;;4993910;28;20494;-67
2021/11/20 11:21:54;;;;;;;20.90;16.57;;;12.80;89.70;;;;;;4993655;28;20466;-67
2021/11/20 11:24:55;;;;;;;20.90;16.60;;;12.70;90.20;;;;;;4993815;28;20468;-67
2021/11/20 11:27:27;;;;;;;20.70;16.67;;;12.70;90.20;;;;;;4993777;28;20472;-68
2021/11/20 11:30:05;;;;;;;20.97;17.00;;;12.70;90.20;;;;;;4993332;28;20472;-68
2021/11/20 11:32:34;;;;;;;19.70;16.60;;;12.70;90.30;;;;;;4993878;28;20440;-68
2021/11/20 11:35:15;;;;;;;20.93;15.60;;;12.60;90.20;;;;;;4993538;28;20910;-68
2021/11/20 11:37:52;;;;;;;18.43;15.30;;;12.60;90.40;;;;;;4993780;28;20464;-67
2021/11/20 11:40:29;;;;;;;19.95;15.95;;;12.60;90.50;;;;;;4993562;28;20451;-67
2021/11/20 11:43:03;;;;;;;19.60;16.47;;;12.60;90.40;;;;;;4993523;28;20196;-68
2021/11/20 11:45:47;;;;;;;18.80;15.10;;;12.60;89.90;;;;;;4993890;28;20805;-67
2021/11/20 11:48:18;;;;;;;16.37;14.40;;;12.60;89.50;;;;;;4993734;28;20468;-68
2021/11/20 11:51:01;;;;;;;19.47;16.43;;;12.50;90.10;;;;;;4993677;28;20468;-67
2021/11/20 11:53:34;;;;;;;19.10;15.20;;;12.50;90.10;;;;;;4993466;28;20440;-67
2021/11/20 11:56:03;;;;;;;17.57;14.40;;;12.50;90.30;;;;;;4993777;28;20479;-67
2021/11/20 11:58:57;;;;;;;17.60;14.77;;;12.50;90.00;;;;;;4993314;28;20982;-67
2021/11/20 12:01:42;;;;;;;16.87;14.00;;;12.40;89.00;;;;;;4993589;28;20432;-67
2021/11/20 12:04:13;;;;;;;16.17;13.80;;;12.40;88.60;;;;;;4993318;28;20429;-66
2021/11/20 12:07:06;;;;;;;19.17;15.63;;;12.30;88.60;;;;;;4994314;28;20433;-66
2021/11/20 12:09:36;;;;;;;21.33;16.73;;;12.30;89.90;;;;;;4993488;28;20439;-66
2021/11/20 12:12:12;;;;;;;17.80;15.30;;;12.20;90.40;;;;;;4993509;28;20444;-67
2021/11/20 12:14:44;;;;;;;18.93;15.53;;;12.20;90.20;;;;;;4993563;28;20443;-67
2021/11/20 12:17:30;;;;;;;18.90;15.80;;;12.30;90.40;;;;;;4994860;28;20480;-69
2021/11/20 12:20:16;;;;;;;16.60;14.80;;;12.30;90.40;;;;;;4996837;28;21020;-67
2021/11/20 12:22:55;;;;;;;21.70;14.97;;;12.30;90.30;;;;;;4997927;28;20470;-67
2021/11/20 12:25:28;;;;;;;15.87;14.17;;;12.30;90.10;;;;;;4996858;28;20463;-67
2021/11/20 12:27:59;;;;;;;17.47;15.23;;;12.40;89.20;;;;;;4997104;28;20468;-67
2021/11/20 12:31:01;;;;;;;17.47;14.87;;;12.40;89.30;;;;;;4996838;28;20472;-67
2021/11/20 12:33:47;;;;;;;17.67;15.10;;;12.30;89.40;;;;;;4996764;28;20444;-67
2021/11/20 12:36:25;;;;;;;18.97;15.00;;;12.20;88.90;;;;;;4996521;28;20531;-67
2021/11/20 12:39:26;;;;;;;19.67;15.70;;;12.20;89.70;;;;;;4996720;28;20472;-67
2021/11/20 12:42:18;;;;;;;17.50;15.20;;;12.20;90.00;;;;;;4997008;28;20440;-67
2021/11/20 12:45:05;;;;;;;17.73;14.63;;;12.20;90.10;;;;;;4996744;28;20448;-67
2021/11/20 12:47:58;;;;;;;16.40;14.00;;;12.20;89.80;;;;;;4996100;28;20476;-67
2021/11/20 12:50:32;;;;;;;17.93;15.93;;;12.30;90.10;;;;;;4995855;28;20544;-67
2021/11/20 12:53:02;;;;;;;18.93;15.93;;;12.20;90.10;;;;;;4996166;28;20944;-67
2021/11/20 12:55:41;;;;;;;19.50;15.17;;;12.20;90.30;;;;;;4996063;28;20906;-67